TimeCDT,TemperatureF,Dew PointF,Humidity,Sea Level PressureIn,VisibilityMPH,Wind Direction,Wind SpeedMPH,Gust SpeedMPH,PrecipitationIn,Events,Conditions,WindDirDegrees,DateUTC
12:54 AM,46.9,44.1,90,29.96,10.0,SE,3.5,-,N/A,,Clear,140,2013-09-30 05:54:00
1:54 AM,48.9,44.1,83,29.96,10.0,SE,5.8,-,N/A,,Clear,130,2013-09-30 06:54:00
2:54 AM,48.0,44.1,86,29.94,10.0,SE,4.6,-,N/A,,Clear,140,2013-09-30 07:54:00
3:54 AM,46.9,43.0,86,29.94,10.0,SE,5.8,-,N/A,,Clear,130,2013-09-30 08:54:00
4:54 AM,46.0,43.0,89,29.94,10.0,SE,6.9,-,N/A,,Clear,140,2013-09-30 09:54:00
5:54 AM,45.0,43.0,93,29.93,10.0,SE,5.8,-,N/A,,Clear,130,2013-09-30 10:54:00
6:54 AM,44.1,42.1,93,29.93,10.0,SE,4.6,-,N/A,,Clear,140,2013-09-30 11:54:00
7:54 AM,46.9,43.0,86,29.92,10.0,SE,5.8,-,N/A,,Clear,140,2013-09-30 12:54:00
8:54 AM,48.9,43.0,80,29.91,10.0,SSE,8.1,-,N/A,,Clear,160,2013-09-30 13:54:00
9:54 AM,57.9,46.0,65,29.89,10.0,SSE,8.1,-,N/A,,Clear,160,2013-09-30 14:54:00
10:54 AM,64.9,44.1,47,29.87,10.0,SSW,12.7,24.2,N/A,,Clear,200,2013-09-30 15:54:00
11:54 AM,68.0,43.0,40,29.86,10.0,South,18.4,26.5,N/A,,Clear,190,2013-09-30 16:54:00
12:54 PM,69.1,43.0,39,29.84,10.0,South,16.1,25.3,N/A,,Clear,190,2013-09-30 17:54:00
1:54 PM,70.0,43.0,38,29.81,10.0,South,16.1,26.5,N/A,,Clear,170,2013-09-30 18:54:00
2:54 PM,70.0,44.1,39,29.78,10.0,South,18.4,28.8,N/A,,Clear,170,2013-09-30 19:54:00
3:54 PM,70.0,44.1,39,29.77,10.0,SSW,17.3,27.6,N/A,,Clear,200,2013-09-30 20:54:00
4:54 PM,69.1,44.1,40,29.77,10.0,South,19.6,27.6,N/A,,Clear,180,2013-09-30 21:54:00
5:54 PM,64.9,46.0,50,29.78,10.0,SSE,8.1,-,N/A,,Clear,160,2013-09-30 22:54:00
6:54 PM,60.1,46.9,62,29.78,10.0,SE,4.6,-,N/A,,Clear,140,2013-09-30 23:54:00
7:54 PM,57.0,46.9,69,29.79,10.0,SE,4.6,-,N/A,,Clear,140,2013-10-01 00:54:00
8:54 PM,55.9,46.9,72,29.80,10.0,SE,5.8,-,N/A,,Clear,140,2013-10-01 01:54:00
9:54 PM,55.0,46.9,74,29.80,10.0,SE,5.8,-,N/A,,Clear,140,2013-10-01 02:54:00
10:54 PM,55.0,46.9,74,29.79,10.0,SE,4.6,-,N/A,,Clear,130,2013-10-01 03:54:00
11:54 PM,54.0,48.0,80,29.78,10.0,SE,5.8,-,N/A,,Clear,140,2013-10-01 04:54:00